Uni-arise — 3FSV7 — position and weather

sailwx.info

Track history (hours):
 
Tides and Currents Weather Stations Pressure Air Temp Water Temp Dewpoint Dewpoint Depression Visibility Wind Speed Wind Dir Waves Ship Positions

Uni-arise

Last reported at 2017-Aug-15 12:35 UTC. Time now 2017-Aug-16 21:42 UTC.
Position N 23°50' E 119°22'.

Length 165 m; draft 7.5 m.

Type: Ship (hazmat cat D). MMSI: 351608000.

Date/timePositionNaut miles runAvg speedWind from/ knotsBaromVisibWave heightAir tempDewpointWater temp
2017-Aug-15 12:35N 23°50' E 119°22'1714.5
2017-Aug-15 11:26N 23°57' E 119°39'814.1
2017-Aug-15 10:53N 24°01' E 119°46'613.4
2017-Aug-15 10:27N 24°03' E 119°52'612.7
2017-Aug-15 10:00N 24°06' E 119°58'713.2
2017-Aug-15 09:26N 24°09' E 120°05'512.5
2017-Aug-15 09:00N 24°12' E 120°10'612.7
2017-Aug-15 08:30N 24°15' E 120°17'80 3.3
2017-Aug-14 08:16N 25°09' E 121°21'511.9
2017-Aug-14 07:52N 25°12' E 121°17'  
2017-Aug-10 15:21N 33°56' E 134°55'615.4
2017-Aug-10 15:00N 34°01' E 134°56'714.5
2017-Aug-10 14:30N 34°08' E 134°57'612.5
2017-Aug-10 14:00N 34°14' E 134°58'611.6
2017-Aug-10 13:30N 34°20' E 134°59'714.2
2017-Aug-10 13:00N 34°26' E 135°04'815.9
2017-Aug-10 12:30N 34°31' E 135°10'714.8
2017-Aug-10 12:00N 34°37' E 135°16'3 5.9
2017-Aug-10 11:30N 34°40' E 135°14'0 0.1
2017-Aug-10 10:59N 34°40' E 135°14'0 0.0
2017-Aug-10 10:23N 34°40' E 135°14'0 0.0
2017-Aug-10 09:59N 34°40' E 135°14'0 0.0
2017-Aug-10 09:29N 34°40' E 135°14'0 0.0
2017-Aug-10 08:59N 34°40' E 135°14'0 0.0
2017-Aug-10 08:29N 34°40' E 135°14'0 0.0
2017-Aug-10 07:53N 34°40' E 135°14'0 0.0
2017-Aug-10 07:29N 34°40' E 135°14'0 0.0
2017-Aug-10 06:59N 34°40' E 135°14'0 0.0
2017-Aug-10 06:29N 34°40' E 135°14'0 0.0
2017-Aug-10 05:59N 34°40' E 135°14'0 0.0
2017-Aug-10 05:29N 34°40' E 135°14'0 0.0
2017-Aug-10 04:59N 34°40' E 135°14'0 0.0
2017-Aug-10 04:29N 34°40' E 135°14'0 0.0
2017-Aug-10 03:59N 34°40' E 135°14'0 0.0
2017-Aug-10 03:23N 34°40' E 135°14'0 0.0
2017-Aug-10 02:59N 34°40' E 135°14'2 4.1
2017-Aug-10 02:30N 34°39' E 135°16'2 4.2
2017-Aug-10 02:00N 34°38' E 135°18'5 9.4
2017-Aug-10 01:30N 34°39' E 135°24'0 0.1
2017-Aug-09 23:14N 34°39' E 135°24'0 0.2
2017-Aug-09 22:56N 34°39' E 135°24'0 0.0
2017-Aug-09 22:26N 34°39' E 135°24'0 0.0
2017-Aug-09 21:50N 34°39' E 135°24'0 0.1
2017-Aug-09 21:26N 34°39' E 135°24'0 0.0
2017-Aug-09 20:56N 34°39' E 135°24'0 0.1
2017-Aug-09 20:26N 34°39' E 135°24'0 0.0
2017-Aug-09 19:56N 34°39' E 135°24'0 0.1
2017-Aug-09 19:26N 34°39' E 135°24'0 0.1
2017-Aug-09 18:50N 34°39' E 135°24'0 0.1
2017-Aug-09 18:26N 34°39' E 135°24'0 0.1
2017-Aug-09 17:56N 34°39' E 135°24'0 0.1
2017-Aug-09 17:20N 34°39' E 135°24'0 0.0
2017-Aug-09 16:56N 34°39' E 135°24'0 0.0
2017-Aug-09 16:20N 34°39' E 135°24'0 0.1
2017-Aug-09 15:56N 34°39' E 135°24'0 0.1
2017-Aug-09 15:20N 34°39' E 135°24'0 0.0
2017-Aug-09 14:50N 34°39' E 135°24'0 0.0
2017-Aug-09 14:26N 34°39' E 135°24'0 0.0
2017-Aug-09 13:56N 34°39' E 135°24'0 0.0
2017-Aug-09 13:20N 34°39' E 135°24'0 0.0
2017-Aug-09 12:56N 34°39' E 135°24'0 0.0
2017-Aug-09 12:26N 34°39' E 135°24'0 0.0
2017-Aug-09 11:50N 34°39' E 135°24'0 0.5
2017-Aug-09 11:31N 34°39' E 135°24'4 8.6
2017-Aug-09 11:00N 34°36' E 135°20'713.8
2017-Aug-09 10:30N 34°33' E 135°13'815.7
2017-Aug-09 10:00N 34°26' E 135°07'916.6
2017-Aug-09 09:30N 34°19' E 135°01'714.7
2017-Aug-09 09:00N 34°12' E 134°60'510.1
2017-Aug-09 08:30N 34°07' E 134°59'712.7
2017-Aug-09 07:59N 34°01' E 134°58'  
2017-Aug-06 15:45N 25°14' E 121°16'413.2
2017-Aug-06 15:25N 25°13' E 121°11'165 6.4
2017-Aug-05 13:32N 22°35' E 120°18'0 0.0
2017-Aug-05 13:26N 22°35' E 120°18'0 0.0
2017-Aug-05 12:59N 22°35' E 120°18'  
Track history (hours):
 
Tides and Currents Weather Stations Pressure Air Temp Water Temp Dewpoint Dewpoint Depression Visibility Wind Speed Wind Dir Waves Ship Positions

Uni-arise

Last reported at 2017-Aug-15 12:35 UTC. Time now 2017-Aug-16 21:42 UTC.
Position N 23°50' E 119°22'.

Length 165 m; draft 7.5 m.

Type: Ship (hazmat cat D). MMSI: 351608000.

Date/timePositionNaut miles runAvg speedWind from/ knotsBaromVisibWave heightAir tempDewpointWater temp
2017-Aug-15 12:35N 23°50' E 119°22'1714.5
2017-Aug-15 11:26N 23°57' E 119°39'814.1
2017-Aug-15 10:53N 24°01' E 119°46'613.4
2017-Aug-15 10:27N 24°03' E 119°52'612.7
2017-Aug-15 10:00N 24°06' E 119°58'713.2
2017-Aug-15 09:26N 24°09' E 120°05'512.5
2017-Aug-15 09:00N 24°12' E 120°10'612.7
2017-Aug-15 08:30N 24°15' E 120°17'80 3.3
2017-Aug-14 08:16N 25°09' E 121°21'511.9
2017-Aug-14 07:52N 25°12' E 121°17'  
2017-Aug-10 15:21N 33°56' E 134°55'615.4
2017-Aug-10 15:00N 34°01' E 134°56'714.5
2017-Aug-10 14:30N 34°08' E 134°57'612.5
2017-Aug-10 14:00N 34°14' E 134°58'611.6
2017-Aug-10 13:30N 34°20' E 134°59'714.2
2017-Aug-10 13:00N 34°26' E 135°04'815.9
2017-Aug-10 12:30N 34°31' E 135°10'714.8
2017-Aug-10 12:00N 34°37' E 135°16'3 5.9
2017-Aug-10 11:30N 34°40' E 135°14'0 0.1
2017-Aug-10 10:59N 34°40' E 135°14'0 0.0
2017-Aug-10 10:23N 34°40' E 135°14'0 0.0
2017-Aug-10 09:59N 34°40' E 135°14'0 0.0
2017-Aug-10 09:29N 34°40' E 135°14'0 0.0
2017-Aug-10 08:59N 34°40' E 135°14'0 0.0
2017-Aug-10 08:29N 34°40' E 135°14'0 0.0
2017-Aug-10 07:53N 34°40' E 135°14'0 0.0
2017-Aug-10 07:29N 34°40' E 135°14'0 0.0
2017-Aug-10 06:59N 34°40' E 135°14'0 0.0
2017-Aug-10 06:29N 34°40' E 135°14'0 0.0
2017-Aug-10 05:59N 34°40' E 135°14'0 0.0
2017-Aug-10 05:29N 34°40' E 135°14'0 0.0
2017-Aug-10 04:59N 34°40' E 135°14'0 0.0
2017-Aug-10 04:29N 34°40' E 135°14'0 0.0
2017-Aug-10 03:59N 34°40' E 135°14'0 0.0
2017-Aug-10 03:23N 34°40' E 135°14'0 0.0
2017-Aug-10 02:59N 34°40' E 135°14'2 4.1
2017-Aug-10 02:30N 34°39' E 135°16'2 4.2
2017-Aug-10 02:00N 34°38' E 135°18'5 9.4
2017-Aug-10 01:30N 34°39' E 135°24'0 0.1
2017-Aug-09 23:14N 34°39' E 135°24'0 0.2
2017-Aug-09 22:56N 34°39' E 135°24'0 0.0
2017-Aug-09 22:26N 34°39' E 135°24'0 0.0
2017-Aug-09 21:50N 34°39' E 135°24'0 0.1
2017-Aug-09 21:26N 34°39' E 135°24'0 0.0
2017-Aug-09 20:56N 34°39' E 135°24'0 0.1
2017-Aug-09 20:26N 34°39' E 135°24'0 0.0
2017-Aug-09 19:56N 34°39' E 135°24'0 0.1
2017-Aug-09 19:26N 34°39' E 135°24'0 0.1
2017-Aug-09 18:50N 34°39' E 135°24'0 0.1
2017-Aug-09 18:26N 34°39' E 135°24'0 0.1
2017-Aug-09 17:56N 34°39' E 135°24'0 0.1
2017-Aug-09 17:20N 34°39' E 135°24'0 0.0
2017-Aug-09 16:56N 34°39' E 135°24'0 0.0
2017-Aug-09 16:20N 34°39' E 135°24'0 0.1
2017-Aug-09 15:56N 34°39' E 135°24'0 0.1
2017-Aug-09 15:20N 34°39' E 135°24'0 0.0
2017-Aug-09 14:50N 34°39' E 135°24'0 0.0
2017-Aug-09 14:26N 34°39' E 135°24'0 0.0
2017-Aug-09 13:56N 34°39' E 135°24'0 0.0
2017-Aug-09 13:20N 34°39' E 135°24'0 0.0
2017-Aug-09 12:56N 34°39' E 135°24'0 0.0
2017-Aug-09 12:26N 34°39' E 135°24'0 0.0
2017-Aug-09 11:50N 34°39' E 135°24'0 0.5
2017-Aug-09 11:31N 34°39' E 135°24'4 8.6
2017-Aug-09 11:00N 34°36' E 135°20'713.8
2017-Aug-09 10:30N 34°33' E 135°13'815.7
2017-Aug-09 10:00N 34°26' E 135°07'916.6
2017-Aug-09 09:30N 34°19' E 135°01'714.7
2017-Aug-09 09:00N 34°12' E 134°60'510.1
2017-Aug-09 08:30N 34°07' E 134°59'712.7
2017-Aug-09 07:59N 34°01' E 134°58'  
2017-Aug-06 15:45N 25°14' E 121°16'413.2
2017-Aug-06 15:25N 25°13' E 121°11'165 6.4
2017-Aug-05 13:32N 22°35' E 120°18'0 0.0
2017-Aug-05 13:26N 22°35' E 120°18'0 0.0
2017-Aug-05 12:59N 22°35' E 120°18'  

Dump ship's entire track history